sensor_id;sensor_type;location;lat;lon;timestamp;pressure;altitude;pressure_sealevel;temperature;humidity
45275;BME280;31019;43.780;25.948;2022-09-17T00:01:45;100012.94;;;17.71;100.00
45275;BME280;31019;43.780;25.948;2022-09-17T00:04:13;100016.16;;;17.62;100.00
45275;BME280;31019;43.780;25.948;2022-09-17T00:06:46;100023.66;;;17.50;100.00
45275;BME280;31019;43.780;25.948;2022-09-17T00:09:14;100028.22;;;17.65;100.00
45275;BME280;31019;43.780;25.948;2022-09-17T00:11:41;100026.31;;;17.76;100.00
45275;BME280;31019;43.780;25.948;2022-09-17T00:14:12;100035.47;;;17.75;100.00
45275;BME280;31019;43.780;25.948;2022-09-17T00:16:39;100034.94;;;17.73;100.00
45275;BME280;31019;43.780;25.948;2022-09-17T00:19:11;100037.38;;;17.79;100.00
45275;BME280;31019;43.780;25.948;2022-09-17T00:21:41;100032.81;;;17.80;100.00
45275;BME280;31019;43.780;25.948;2022-09-17T00:24:12;100022.34;;;17.58;100.00
45275;BME280;31019;43.780;25.948;2022-09-17T00:26:42;100033.03;;;17.32;100.00
45275;BME280;31019;43.780;25.948;2022-09-17T00:29:12;100031.16;;;17.48;100.00
45275;BME280;31019;43.780;25.948;2022-09-17T00:31:39;100028.22;;;17.34;100.00
45275;BME280;31019;43.780;25.948;2022-09-17T00:34:08;100028.50;;;17.53;100.00
45275;BME280;31019;43.780;25.948;2022-09-17T00:36:36;100016.69;;;17.59;100.00
45275;BME280;31019;43.780;25.948;2022-09-17T00:39:05;100010.78;;;17.37;100.00
45275;BME280;31019;43.780;25.948;2022-09-17T00:41:42;100012.13;;;17.19;100.00
45275;BME280;31019;43.780;25.948;2022-09-17T00:46:55;100012.38;;;17.74;100.00
45275;BME280;31019;43.780;25.948;2022-09-17T00:49:23;100007.03;;;17.84;100.00
45275;BME280;31019;43.780;25.948;2022-09-17T00:51:54;100009.69;;;17.74;100.00
45275;BME280;31019;43.780;25.948;2022-09-17T00:54:27;100009.97;;;17.36;100.00
45275;BME280;31019;43.780;25.948;2022-09-17T00:56:56;100008.34;;;17.66;100.00
45275;BME280;31019;43.780;25.948;2022-09-17T00:59:28;100011.31;;;17.90;100.00
45275;BME280;31019;43.780;25.948;2022-09-17T01:01:54;100002.72;;;17.83;100.00
45275;BME280;31019;43.780;25.948;2022-09-17T01:04:26;100003.78;;;17.82;100.00
45275;BME280;31019;43.780;25.948;2022-09-17T01:06:58;100001.38;;;17.19;100.00
45275;BME280;31019;43.780;25.948;2022-09-17T01:09:33;100005.13;;;17.49;100.00
45275;BME280;31019;43.780;25.948;2022-09-17T01:12:12;100008.34;;;17.51;100.00
45275;BME280;31019;43.780;25.948;2022-09-17T01:14:48;100007.28;;;17.47;100.00
45275;BME280;31019;43.780;25.948;2022-09-17T01:17:20;100007.25;;;17.11;100.00
45275;BME280;31019;43.780;25.948;2022-09-17T01:22:52;100007.81;;;17.49;100.00
45275;BME280;31019;43.780;25.948;2022-09-17T01:25:22;100007.28;;;17.47;100.00
45275;BME280;31019;43.780;25.948;2022-09-17T01:30:58;100003.78;;;17.56;100.00
45275;BME280;31019;43.780;25.948;2022-09-17T01:33:28;100004.34;;;17.89;100.00
45275;BME280;31019;43.780;25.948;2022-09-17T01:36:00;100001.38;;;17.96;100.00
45275;BME280;31019;43.780;25.948;2022-09-17T01:38:32;99988.72;;;18.01;100.00
45275;BME280;31019;43.780;25.948;2022-09-17T01:41:06;99988.72;;;17.91;100.00
45275;BME280;31019;43.780;25.948;2022-09-17T01:43:37;99979.34;;;17.78;100.00
45275;BME280;31019;43.780;25.948;2022-09-17T01:46:19;99980.91;;;18.00;100.00
45275;BME280;31019;43.780;25.948;2022-09-17T01:48:50;99975.53;;;18.00;100.00
45275;BME280;31019;43.780;25.948;2022-09-17T01:51:23;99981.47;;;17.97;100.00
45275;BME280;31019;43.780;25.948;2022-09-17T01:53:59;99978.56;;;17.62;100.00
45275;BME280;31019;43.780;25.948;2022-09-17T01:56:30;99966.47;;;17.45;100.00
45275;BME280;31019;43.780;25.948;2022-09-17T01:59:03;99957.06;;;17.78;100.00
45275;BME280;31019;43.780;25.948;2022-09-17T02:01:36;99954.34;;;17.73;100.00
45275;BME280;31019;43.780;25.948;2022-09-17T02:04:05;99954.91;;;17.75;100.00
45275;BME280;31019;43.780;25.948;2022-09-17T02:06:34;99964.28;;;17.98;100.00
45275;BME280;31019;43.780;25.948;2022-09-17T02:09:04;99954.63;;;17.92;100.00
45275;BME280;31019;43.780;25.948;2022-09-17T02:11:32;99955.97;;;17.89;100.00
45275;BME280;31019;43.780;25.948;2022-09-17T02:14:02;99957.59;;;17.75;100.00
45275;BME280;31019;43.780;25.948;2022-09-17T02:16:31;99958.97;;;17.82;100.00
45275;BME280;31019;43.780;25.948;2022-09-17T02:19:01;99962.69;;;17.81;100.00
45275;BME280;31019;43.780;25.948;2022-09-17T02:21:31;99953.03;;;17.80;100.00
45275;BME280;31019;43.780;25.948;2022-09-17T02:24:06;99943.91;;;17.81;100.00
45275;BME280;31019;43.780;25.948;2022-09-17T02:26:38;99932.31;;;17.96;100.00
45275;BME280;31019;43.780;25.948;2022-09-17T02:29:10;99934.81;;;17.31;100.00
45275;BME280;31019;43.780;25.948;2022-09-17T02:31:39;99937.50;;;17.36;100.00
45275;BME280;31019;43.780;25.948;2022-09-17T02:34:07;99934.00;;;17.56;100.00
45275;BME280;31019;43.780;25.948;2022-09-17T02:36:35;99931.59;;;17.29;100.00
45275;BME280;31019;43.780;25.948;2022-09-17T02:39:03;99930.75;;;17.65;100.00
45275;BME280;31019;43.780;25.948;2022-09-17T02:41:34;99923.50;;;17.65;100.00
45275;BME280;31019;43.780;25.948;2022-09-17T02:44:03;99928.63;;;17.56;100.00
45275;BME280;31019;43.780;25.948;2022-09-17T02:46:39;99929.41;;;17.57;100.00
45275;BME280;31019;43.780;25.948;2022-09-17T02:49:17;99934.50;;;17.74;100.00
45275;BME280;31019;43.780;25.948;2022-09-17T02:51:47;99941.50;;;17.59;100.00
45275;BME280;31019;43.780;25.948;2022-09-17T02:54:17;99933.41;;;17.70;100.00
45275;BME280;31019;43.780;25.948;2022-09-17T02:56:48;99931.81;;;17.69;100.00
45275;BME280;31019;43.780;25.948;2022-09-17T02:59:20;99926.75;;;17.62;100.00
45275;BME280;31019;43.780;25.948;2022-09-17T03:01:50;99924.34;;;17.35;100.00
45275;BME280;31019;43.780;25.948;2022-09-17T03:04:20;99901.19;;;17.70;100.00
45275;BME280;31019;43.780;25.948;2022-09-17T03:06:48;99909.84;;;17.41;100.00
45275;BME280;31019;43.780;25.948;2022-09-17T03:09:17;99918.19;;;17.24;100.00
45275;BME280;31019;43.780;25.948;2022-09-17T03:11:43;99909.81;;;17.51;100.00
45275;BME280;31019;43.780;25.948;2022-09-17T03:14:10;99901.22;;;17.65;100.00
45275;BME280;31019;43.780;25.948;2022-09-17T03:16:36;99888.31;;;17.67;100.00
45275;BME280;31019;43.780;25.948;2022-09-17T03:19:03;99892.69;;;17.27;100.00
45275;BME280;31019;43.780;25.948;2022-09-17T03:21:31;99882.72;;;17.53;100.00
45275;BME280;31019;43.780;25.948;2022-09-17T03:23:58;99886.50;;;17.21;100.00
45275;BME280;31019;43.780;25.948;2022-09-17T03:26:25;99897.25;;;17.31;100.00
45275;BME280;31019;43.780;25.948;2022-09-17T03:28:51;99895.84;;;17.54;100.00
45275;BME280;31019;43.780;25.948;2022-09-17T03:31:18;99882.72;;;17.53;100.00
45275;BME280;31019;43.780;25.948;2022-09-17T03:33:45;99871.13;;;17.78;100.00
45275;BME280;31019;43.780;25.948;2022-09-17T03:36:12;99860.09;;;17.74;100.00
45275;BME280;31019;43.780;25.948;2022-09-17T03:38:39;99859.06;;;17.60;100.00
45275;BME280;31019;43.780;25.948;2022-09-17T03:41:06;99848.91;;;17.36;100.00
45275;BME280;31019;43.780;25.948;2022-09-17T03:43:33;99845.66;;;17.55;100.00
45275;BME280;31019;43.780;25.948;2022-09-17T03:45:59;99840.25;;;17.80;100.00
45275;BME280;31019;43.780;25.948;2022-09-17T03:48:26;99839.97;;;17.72;100.00
45275;BME280;31019;43.780;25.948;2022-09-17T03:50:53;99832.97;;;17.76;100.00
45275;BME280;31019;43.780;25.948;2022-09-17T03:53:21;99832.41;;;17.89;100.00
45275;BME280;31019;43.780;25.948;2022-09-17T03:55:49;99836.16;;;17.88;100.00
45275;BME280;31019;43.780;25.948;2022-09-17T03:58:16;99831.34;;;17.85;100.00
45275;BME280;31019;43.780;25.948;2022-09-17T04:00:42;99834.56;;;17.92;100.00
45275;BME280;31019;43.780;25.948;2022-09-17T04:03:09;99821.91;;;17.93;100.00
45275;BME280;31019;43.780;25.948;2022-09-17T04:05:36;99814.66;;;17.93;100.00
45275;BME280;31019;43.780;25.948;2022-09-17T04:08:02;99804.44;;;18.00;100.00
45275;BME280;31019;43.780;25.948;2022-09-17T04:10:29;99797.66;;;18.08;100.00
45275;BME280;31019;43.780;25.948;2022-09-17T04:12:57;99790.72;;;18.02;100.00
45275;BME280;31019;43.780;25.948;2022-09-17T04:15:23;99795.44;;;18.15;100.00
45275;BME280;31019;43.780;25.948;2022-09-17T04:17:51;99793.41;;;18.02;100.00
45275;BME280;31019;43.780;25.948;2022-09-17T04:20:20;99805.03;;;17.82;100.00
45275;BME280;31019;43.780;25.948;2022-09-17T04:22:46;99817.03;;;18.00;100.00
45275;BME280;31019;43.780;25.948;2022-09-17T04:25:13;99820.00;;;18.03;100.00
45275;BME280;31019;43.780;25.948;2022-09-17T04:27:40;99828.38;;;17.92;100.00
45275;BME280;31019;43.780;25.948;2022-09-17T04:30:08;99826.31;;;18.28;100.00
45275;BME280;31019;43.780;25.948;2022-09-17T04:32:35;99817.84;;;18.45;100.00
45275;BME280;31019;43.780;25.948;2022-09-17T04:35:01;99805.72;;;18.52;100.00
45275;BME280;31019;43.780;25.948;2022-09-17T04:37:28;99801.66;;;18.55;100.00
45275;BME280;31019;43.780;25.948;2022-09-17T04:39:55;99796.84;;;18.52;100.00
45275;BME280;31019;43.780;25.948;2022-09-17T04:42:21;99813.44;;;18.20;100.00
45275;BME280;31019;43.780;25.948;2022-09-17T04:44:48;99818.59;;;18.56;100.00
45275;BME280;31019;43.780;25.948;2022-09-17T04:47:16;99813.34;;;18.69;100.00
45275;BME280;31019;43.780;25.948;2022-09-17T04:49:42;99808.53;;;18.66;100.00
45275;BME280;31019;43.780;25.948;2022-09-17T04:52:09;99802.78;;;18.83;100.00
45275;BME280;31019;43.780;25.948;2022-09-17T04:54:36;99789.00;;;18.90;100.00
45275;BME280;31019;43.780;25.948;2022-09-17T04:57:02;99802.25;;;18.81;100.00
45275;BME280;31019;43.780;25.948;2022-09-17T04:59:29;99800.09;;;18.83;100.00
45275;BME280;31019;43.780;25.948;2022-09-17T05:01:56;99806.19;;;18.94;100.00
45275;BME280;31019;43.780;25.948;2022-09-17T05:04:24;99797.56;;;19.21;100.00
45275;BME280;31019;43.780;25.948;2022-09-17T05:06:50;99799.88;;;19.33;100.00
45275;BME280;31019;43.780;25.948;2022-09-17T05:09:17;99806.06;;;19.09;100.00
45275;BME280;31019;43.780;25.948;2022-09-17T05:11:44;99792.72;;;19.47;100.00
45275;BME280;31019;43.780;25.948;2022-09-17T05:14:10;99795.41;;;19.47;100.00
45275;BME280;31019;43.780;25.948;2022-09-17T05:16:38;99791.16;;;19.41;100.00
45275;BME280;31019;43.780;25.948;2022-09-17T05:19:04;99799.66;;;19.53;100.00
45275;BME280;31019;43.780;25.948;2022-09-17T05:21:33;99789.84;;;19.62;100.00
45275;BME280;31019;43.780;25.948;2022-09-17T05:24:00;99791.88;;;19.52;100.00
45275;BME280;31019;43.780;25.948;2022-09-17T05:26:27;99789.03;;;19.67;100.00
45275;BME280;31019;43.780;25.948;2022-09-17T05:28:54;99787.09;;;19.92;100.00
45275;BME280;31019;43.780;25.948;2022-09-17T05:31:20;99781.00;;;19.81;100.00
45275;BME280;31019;43.780;25.948;2022-09-17T05:33:47;99784.66;;;19.90;100.00
45275;BME280;31019;43.780;25.948;2022-09-17T05:36:13;99790.78;;;19.96;100.00
45275;BME280;31019;43.780;25.948;2022-09-17T05:38:41;99800.34;;;19.40;100.00
45275;BME280;31019;43.780;25.948;2022-09-17T05:41:08;99787.34;;;19.90;100.00
45275;BME280;31019;43.780;25.948;2022-09-17T05:43:34;99800.00;;;19.71;100.00
45275;BME280;31019;43.780;25.948;2022-09-17T05:46:01;99792.41;;;20.34;100.00
45275;BME280;31019;43.780;25.948;2022-09-17T05:48:28;99785.25;;;20.25;100.00
45275;BME280;31019;43.780;25.948;2022-09-17T05:50:55;99794.28;;;20.34;100.00
45275;BME280;31019;43.780;25.948;2022-09-17T05:53:21;99783.88;;;20.79;100.00
45275;BME280;31019;43.780;25.948;2022-09-17T05:55:49;99782.19;;;20.83;100.00
45275;BME280;31019;43.780;25.948;2022-09-17T05:58:17;99783.94;;;21.07;100.00
45275;BME280;31019;43.780;25.948;2022-09-17T06:00:44;99782.88;;;20.75;100.00
45275;BME280;31019;43.780;25.948;2022-09-17T06:03:11;99775.22;;;20.96;100.00
45275;BME280;31019;43.780;25.948;2022-09-17T06:05:38;99764.25;;;21.06;100.00
45275;BME280;31019;43.780;25.948;2022-09-17T06:08:04;99758.94;;;21.28;100.00
45275;BME280;31019;43.780;25.948;2022-09-17T06:10:31;99772.34;;;21.20;100.00
45275;BME280;31019;43.780;25.948;2022-09-17T06:12:59;99775.47;;;20.67;100.00
45275;BME280;31019;43.780;25.948;2022-09-17T06:15:26;99781.09;;;20.32;100.00
45275;BME280;31019;43.780;25.948;2022-09-17T06:17:53;99783.63;;;20.94;100.00
45275;BME280;31019;43.780;25.948;2022-09-17T06:20:20;99782.75;;;21.13;100.00
45275;BME280;31019;43.780;25.948;2022-09-17T06:22:46;99763.66;;;21.50;100.00
45275;BME280;31019;43.780;25.948;2022-09-17T06:25:13;99764.53;;;21.32;100.00
45275;BME280;31019;43.780;25.948;2022-09-17T06:27:40;99759.16;;;21.60;100.00
45275;BME280;31019;43.780;25.948;2022-09-17T06:30:08;99763.66;;;21.64;100.00
45275;BME280;31019;43.780;25.948;2022-09-17T06:32:34;99756.03;;;21.66;100.00
45275;BME280;31019;43.780;25.948;2022-09-17T06:35:01;99763.44;;;21.75;100.00
45275;BME280;31019;43.780;25.948;2022-09-17T06:37:28;99753.53;;;21.70;100.00
45275;BME280;31019;43.780;25.948;2022-09-17T06:39:54;99764.53;;;21.60;100.00
45275;BME280;31019;43.780;25.948;2022-09-17T06:42:21;99765.25;;;21.79;100.00
45275;BME280;31019;43.780;25.948;2022-09-17T06:44:48;99767.72;;;21.89;100.00
45275;BME280;31019;43.780;25.948;2022-09-17T06:47:16;99772.81;;;21.91;100.00
45275;BME280;31019;43.780;25.948;2022-09-17T06:49:43;99769.28;;;22.04;100.00
45275;BME280;31019;43.780;25.948;2022-09-17T06:52:09;99773.34;;;21.65;100.00
45275;BME280;31019;43.780;25.948;2022-09-17T06:54:36;99777.31;;;21.95;100.00
45275;BME280;31019;43.780;25.948;2022-09-17T06:57:03;99786.97;;;22.10;100.00
45275;BME280;31019;43.780;25.948;2022-09-17T06:59:31;99787.69;;;22.02;100.00
45275;BME280;31019;43.780;25.948;2022-09-17T07:01:57;99791.38;;;22.20;100.00
45275;BME280;31019;43.780;25.948;2022-09-17T07:04:25;99782.88;;;22.13;100.00
45275;BME280;31019;43.780;25.948;2022-09-17T07:06:52;99790.19;;;22.49;100.00
45275;BME280;31019;43.780;25.948;2022-09-17T07:09:18;99781.31;;;22.34;100.00
45275;BME280;31019;43.780;25.948;2022-09-17T07:11:45;99785.75;;;22.30;100.00
45275;BME280;31019;43.780;25.948;2022-09-17T07:14:11;99780.53;;;22.34;100.00
45275;BME280;31019;43.780;25.948;2022-09-17T07:16:38;99782.34;;;22.25;100.00
45275;BME280;31019;43.780;25.948;2022-09-17T07:19:05;99789.06;;;22.13;100.00
45275;BME280;31019;43.780;25.948;2022-09-17T07:21:33;99777.28;;;22.46;100.00
45275;BME280;31019;43.780;25.948;2022-09-17T07:24:00;99770.97;;;22.59;100.00
45275;BME280;31019;43.780;25.948;2022-09-17T07:26:26;99778.03;;;22.69;100.00
45275;BME280;31019;43.780;25.948;2022-09-17T07:28:53;99772.06;;;22.80;100.00
45275;BME280;31019;43.780;25.948;2022-09-17T07:31:20;99778.94;;;22.86;100.00
45275;BME280;31019;43.780;25.948;2022-09-17T07:33:47;99786.84;;;23.05;100.00
45275;BME280;31019;43.780;25.948;2022-09-17T07:36:14;99792.72;;;22.99;100.00
45275;BME280;31019;43.780;25.948;2022-09-17T07:38:43;99784.66;;;23.07;100.00
45275;BME280;31019;43.780;25.948;2022-09-17T07:41:10;99778.66;;;23.19;100.00
45275;BME280;31019;43.780;25.948;2022-09-17T07:43:37;99770.94;;;23.04;100.00
45275;BME280;31019;43.780;25.948;2022-09-17T07:46:04;99759.66;;;23.68;100.00
45275;BME280;31019;43.780;25.948;2022-09-17T07:48:31;99760.66;;;23.89;100.00
45275;BME280;31019;43.780;25.948;2022-09-17T07:50:58;99759.72;;;23.76;100.00
45275;BME280;31019;43.780;25.948;2022-09-17T07:53:25;99757.16;;;23.80;100.00
45275;BME280;31019;43.780;25.948;2022-09-17T07:55:54;99757.47;;;24.05;100.00
45275;BME280;31019;43.780;25.948;2022-09-17T07:58:21;99754.59;;;24.44;100.00
45275;BME280;31019;43.780;25.948;2022-09-17T08:00:48;99765.59;;;24.57;100.00
45275;BME280;31019;43.780;25.948;2022-09-17T08:03:15;99774.25;;;24.50;100.00
45275;BME280;31019;43.780;25.948;2022-09-17T08:05:47;99760.81;;;24.62;100.00
45275;BME280;31019;43.780;25.948;2022-09-17T08:08:13;99754.41;;;24.76;100.00
45275;BME280;31019;43.780;25.948;2022-09-17T08:10:40;99757.56;;;24.78;100.00
45275;BME280;31019;43.780;25.948;2022-09-17T08:13:08;99776.16;;;24.50;100.00
45275;BME280;31019;43.780;25.948;2022-09-17T08:15:35;99770.53;;;24.72;100.00
45275;BME280;31019;43.780;25.948;2022-09-17T08:18:01;99775.34;;;24.75;100.00
45275;BME280;31019;43.780;25.948;2022-09-17T08:20:32;99764.13;;;24.77;100.00
45275;BME280;31019;43.780;25.948;2022-09-17T08:22:58;99768.59;;;24.81;100.00
45275;BME280;31019;43.780;25.948;2022-09-17T08:25:26;99776.44;;;24.74;100.00
45275;BME280;31019;43.780;25.948;2022-09-17T08:27:53;99778.56;;;24.51;100.00
45275;BME280;31019;43.780;25.948;2022-09-17T08:30:22;99776.41;;;24.91;100.00
45275;BME280;31019;43.780;25.948;2022-09-17T08:32:49;99767.44;;;25.38;100.00
45275;BME280;31019;43.780;25.948;2022-09-17T08:35:18;99762.31;;;25.66;100.00
45275;BME280;31019;43.780;25.948;2022-09-17T08:37:44;99763.78;;;25.93;100.00
45275;BME280;31019;43.780;25.948;2022-09-17T08:40:15;99752.59;;;25.56;100.00
45275;BME280;31019;43.780;25.948;2022-09-17T08:42:48;99764.19;;;25.15;100.00
45275;BME280;31019;43.780;25.948;2022-09-17T08:45:18;99772.91;;;25.59;100.00
45275;BME280;31019;43.780;25.948;2022-09-17T08:47:51;99768.66;;;26.21;100.00
45275;BME280;31019;43.780;25.948;2022-09-17T08:50:22;99774.13;;;26.00;100.00
45275;BME280;31019;43.780;25.948;2022-09-17T08:52:55;99767.59;;;25.92;100.00
45275;BME280;31019;43.780;25.948;2022-09-17T08:55:29;99773.63;;;25.98;100.00
45275;BME280;31019;43.780;25.948;2022-09-17T08:58:03;99766.22;;;26.40;100.00
45275;BME280;31019;43.780;25.948;2022-09-17T09:00:36;99762.78;;;26.31;100.00
45275;BME280;31019;43.780;25.948;2022-09-17T09:03:15;99754.09;;;26.71;100.00
45275;BME280;31019;43.780;25.948;2022-09-17T09:05:46;99764.25;;;26.95;100.00
45275;BME280;31019;43.780;25.948;2022-09-17T09:08:15;99768.94;;;26.61;100.00
45275;BME280;31019;43.780;25.948;2022-09-17T09:10:45;99772.94;;;26.76;100.00
45275;BME280;31019;43.780;25.948;2022-09-17T09:13:15;99782.91;;;26.39;100.00
45275;BME280;31019;43.780;25.948;2022-09-17T09:15:44;99781.66;;;26.36;100.00
45275;BME280;31019;43.780;25.948;2022-09-17T09:18:17;99775.25;;;26.32;100.00
45275;BME280;31019;43.780;25.948;2022-09-17T09:20:50;99790.41;;;26.63;100.00
45275;BME280;31019;43.780;25.948;2022-09-17T09:23:20;99789.72;;;26.66;100.00
45275;BME280;31019;43.780;25.948;2022-09-17T09:25:53;99778.44;;;26.55;100.00
45275;BME280;31019;43.780;25.948;2022-09-17T09:28:28;99788.50;;;26.76;100.00
45275;BME280;31019;43.780;25.948;2022-09-17T09:31:01;99782.75;;;27.02;100.00
45275;BME280;31019;43.780;25.948;2022-09-17T09:33:36;99780.59;;;26.95;100.00
45275;BME280;31019;43.780;25.948;2022-09-17T09:36:05;99774.22;;;26.79;100.00
45275;BME280;31019;43.780;25.948;2022-09-17T09:38:39;99777.28;;;27.02;100.00
45275;BME280;31019;43.780;25.948;2022-09-17T09:41:07;99782.16;;;26.50;100.00
45275;BME280;31019;43.780;25.948;2022-09-17T09:43:36;99778.38;;;26.43;100.00
45275;BME280;31019;43.780;25.948;2022-09-17T09:46:15;99778.03;;;26.44;100.00
45275;BME280;31019;43.780;25.948;2022-09-17T09:48:50;99778.97;;;26.48;100.00
45275;BME280;31019;43.780;25.948;2022-09-17T09:51:24;99776.19;;;26.57;100.00
45275;BME280;31019;43.780;25.948;2022-09-17T09:54:07;99774.59;;;26.35;100.00
45275;BME280;31019;43.780;25.948;2022-09-17T09:56:40;99765.63;;;26.35;100.00
45275;BME280;31019;43.780;25.948;2022-09-17T09:59:11;99763.50;;;26.40;100.00
45275;BME280;31019;43.780;25.948;2022-09-17T10:01:41;99758.06;;;26.40;100.00
45275;BME280;31019;43.780;25.948;2022-09-17T10:04:16;99768.63;;;26.63;100.00
45275;BME280;31019;43.780;25.948;2022-09-17T10:06:43;99769.91;;;26.90;100.00
45275;BME280;31019;43.780;25.948;2022-09-17T10:09:11;99768.66;;;26.87;100.00
45275;BME280;31019;43.780;25.948;2022-09-17T10:11:38;99767.03;;;26.74;100.00
45275;BME280;31019;43.780;25.948;2022-09-17T10:17:10;99777.69;;;26.13;100.00
45275;BME280;31019;43.780;25.948;2022-09-17T10:19:39;99764.56;;;26.15;100.00
45275;BME280;31019;43.780;25.948;2022-09-17T10:22:23;99774.91;;;26.21;100.00
45275;BME280;31019;43.780;25.948;2022-09-17T10:24:50;99772.97;;;26.01;100.00
45275;BME280;31019;43.780;25.948;2022-09-17T10:27:18;99776.16;;;26.24;97.76
45275;BME280;31019;43.780;25.948;2022-09-17T10:29:46;99783.44;;;26.11;100.00
45275;BME280;31019;43.780;25.948;2022-09-17T10:32:18;99785.38;;;26.11;100.00
45275;BME280;31019;43.780;25.948;2022-09-17T10:34:59;99786.56;;;26.22;100.00
45275;BME280;31019;43.780;25.948;2022-09-17T10:37:35;99789.81;;;26.36;100.00
45275;BME280;31019;43.780;25.948;2022-09-17T10:40:26;99777.69;;;26.13;100.00
45275;BME280;31019;43.780;25.948;2022-09-17T10:45:34;99791.22;;;26.21;100.00
45275;BME280;31019;43.780;25.948;2022-09-17T10:48:12;99792.38;;;26.20;100.00
45275;BME280;31019;43.780;25.948;2022-09-17T10:50:48;99791.16;;;26.30;100.00
45275;BME280;31019;43.780;25.948;2022-09-17T10:53:15;99788.16;;;26.02;100.00
45275;BME280;31019;43.780;25.948;2022-09-17T10:55:42;99789.97;;;26.19;100.00
45275;BME280;31019;43.780;25.948;2022-09-17T10:58:16;99807.34;;;26.06;100.00
45275;BME280;31019;43.780;25.948;2022-09-17T11:00:51;99794.59;;;25.97;100.00
45275;BME280;31019;43.780;25.948;2022-09-17T11:06:27;99802.66;;;25.94;100.00
45275;BME280;31019;43.780;25.948;2022-09-17T11:09:00;99806.22;;;26.07;100.00
45275;BME280;31019;43.780;25.948;2022-09-17T11:11:35;99784.47;;;26.07;100.00
45275;BME280;31019;43.780;25.948;2022-09-17T11:14:08;99799.19;;;26.06;100.00
45275;BME280;31019;43.780;25.948;2022-09-17T11:16:47;99795.88;;;26.00;100.00
45275;BME280;31019;43.780;25.948;2022-09-17T11:19:22;99807.56;;;26.00;100.00
45275;BME280;31019;43.780;25.948;2022-09-17T11:21:53;99803.44;;;25.94;100.00
45275;BME280;31019;43.780;25.948;2022-09-17T11:24:32;99812.19;;;26.00;100.00
45275;BME280;31019;43.780;25.948;2022-09-17T11:27:10;99825.59;;;25.84;100.00
45275;BME280;31019;43.780;25.948;2022-09-17T11:29:51;99833.09;;;25.87;100.00
45275;BME280;31019;43.780;25.948;2022-09-17T11:32:28;99842.19;;;25.53;100.00
45275;BME280;31019;43.780;25.948;2022-09-17T11:34:59;99857.28;;;25.71;100.00
45275;BME280;31019;43.780;25.948;2022-09-17T11:37:34;99874.56;;;25.28;100.00
45275;BME280;31019;43.780;25.948;2022-09-17T11:40:03;99888.78;;;25.34;100.00
45275;BME280;31019;43.780;25.948;2022-09-17T11:42:36;99893.41;;;25.42;100.00
45275;BME280;31019;43.780;25.948;2022-09-17T11:45:05;99903.13;;;25.52;100.00
45275;BME280;31019;43.780;25.948;2022-09-17T11:47:39;99901.00;;;25.66;100.00
45275;BME280;31019;43.780;25.948;2022-09-17T11:50:09;99901.38;;;25.39;100.00
45275;BME280;31019;43.780;25.948;2022-09-17T11:52:41;99911.31;;;25.34;100.00
45275;BME280;31019;43.780;25.948;2022-09-17T11:55:15;99907.13;;;25.46;100.00
45275;BME280;31019;43.780;25.948;2022-09-17T11:57:43;99897.06;;;25.46;100.00
45275;BME280;31019;43.780;25.948;2022-09-17T12:00:15;99901.66;;;25.63;100.00
45275;BME280;31019;43.780;25.948;2022-09-17T12:02:47;99912.81;;;25.15;100.00
45275;BME280;31019;43.780;25.948;2022-09-17T12:05:17;99915.16;;;25.42;100.00
45275;BME280;31019;43.780;25.948;2022-09-17T12:07:49;99920.25;;;25.44;100.00
45275;BME280;31019;43.780;25.948;2022-09-17T12:13:09;99903.22;;;25.17;100.00
45275;BME280;31019;43.780;25.948;2022-09-17T12:15:40;99894.50;;;25.41;100.00
45275;BME280;31019;43.780;25.948;2022-09-17T12:18:19;99889.00;;;25.58;100.00
45275;BME280;31019;43.780;25.948;2022-09-17T12:20:52;99882.44;;;25.12;100.00
45275;BME280;31019;43.780;25.948;2022-09-17T12:23:24;99870.63;;;25.08;100.00
45275;BME280;31019;43.780;25.948;2022-09-17T12:25:55;99862.78;;;25.07;100.00
45275;BME280;31019;43.780;25.948;2022-09-17T12:28:27;99836.78;;;24.80;100.00
45275;BME280;31019;43.780;25.948;2022-09-17T12:30:59;99856.78;;;24.49;100.00
45275;BME280;31019;43.780;25.948;2022-09-17T12:33:33;99844.66;;;24.47;100.00
45275;BME280;31019;43.780;25.948;2022-09-17T12:36:06;99862.66;;;24.34;100.00
45275;BME280;31019;43.780;25.948;2022-09-17T12:38:43;99853.22;;;24.14;100.00
45275;BME280;31019;43.780;25.948;2022-09-17T12:41:14;99853.22;;;24.14;100.00
45275;BME280;31019;43.780;25.948;2022-09-17T12:46:52;99853.97;;;23.80;100.00
45275;BME280;31019;43.780;25.948;2022-09-17T12:49:26;99863.34;;;23.73;100.00
45275;BME280;31019;43.780;25.948;2022-09-17T12:52:00;99839.56;;;24.45;100.00
45275;BME280;31019;43.780;25.948;2022-09-17T12:54:44;99831.22;;;24.24;100.00
45275;BME280;31019;43.780;25.948;2022-09-17T12:57:19;99830.88;;;23.91;100.00
45275;BME280;31019;43.780;25.948;2022-09-17T12:59:50;99808.25;;;24.21;100.00
45275;BME280;31019;43.780;25.948;2022-09-17T13:02:30;99794.97;;;24.29;100.00
45275;BME280;31019;43.780;25.948;2022-09-17T13:05:15;99793.38;;;23.93;100.00
45275;BME280;31019;43.780;25.948;2022-09-17T13:07:49;99799.09;;;23.83;100.00
45275;BME280;31019;43.780;25.948;2022-09-17T13:10:40;99809.63;;;23.93;100.00
45275;BME280;31019;43.780;25.948;2022-09-17T13:13:15;99802.22;;;23.59;100.00
45275;BME280;31019;43.780;25.948;2022-09-17T13:15:51;99803.56;;;23.79;100.00